Stalybridge, United Kingdom
Current Conditions -  °F | °C
As of 3:50 AM on Saturday 20 Dec 2014 (Local Time) from EGCC Reporting Station
Broken Clouds Broken Clouds  
Wind Chill:   Ceiling: 2100
Heat Index:   Visibility: 6mi
Dew Point:   Wind: 21mph
Humidity: 81%   Direction: 270°W
Pressure: 30.09"   Gusts: 32mph
Location:  53.48°N, 2.05°W
Report Text: EGCC 200350Z 27018G28KT 9999 BKN021 BKN027 07/04 Q1019 NOSIG
Loading
Personal Weather Stations






























Interactive Weather Map New forecast layout! Learn more

10-Day Weather Forecast

Advertisements
Track Severe Weather on mobile